createdAt,value
2022-09-14T00:01:27.808Z,97897.28
2022-09-14T00:03:56.778Z,97885.75
2022-09-14T00:06:24.178Z,97881.53
2022-09-14T00:08:52.894Z,97891.31
2022-09-14T00:11:23.386Z,97896.13
2022-09-14T00:13:50.470Z,97892.50
2022-09-14T00:16:20.488Z,97880.22
2022-09-14T00:18:56.108Z,97868.09
2022-09-14T00:21:23.647Z,97860.72
2022-09-14T00:23:50.479Z,97853.09
2022-09-14T00:26:22.190Z,97858.41
2022-09-14T00:28:53.588Z,97850.72
2022-09-14T00:31:21.362Z,97855.25
2022-09-14T00:33:50.342Z,97853.38
2022-09-14T00:36:22.899Z,97852.22
2022-09-14T00:38:53.100Z,97856.91
2022-09-14T00:41:23.506Z,97854.84
2022-09-14T00:44:27.473Z,97856.22
2022-09-14T00:46:57.165Z,97839.09
2022-09-14T00:49:29.137Z,97843.31
2022-09-14T00:52:09.623Z,97854.34
2022-09-14T00:54:42.344Z,97847.31
2022-09-14T00:57:09.417Z,97852.69
2022-09-14T00:59:39.192Z,97850.81
2022-09-14T01:02:09.306Z,97845.38
2022-09-14T01:04:36.858Z,97849.56
2022-09-14T01:07:43.117Z,97834.97
2022-09-14T01:10:24.693Z,97835.66
2022-09-14T01:13:37.288Z,97818.84
2022-09-14T01:16:21.761Z,97809.94
2022-09-14T01:18:56.846Z,97798.97
2022-09-14T01:21:29.279Z,97789.47
2022-09-14T01:23:59.413Z,97783.00
2022-09-14T01:26:37.382Z,97782.31
2022-09-14T01:29:15.876Z,97782.00
2022-09-14T01:31:57.833Z,97784.19
2022-09-14T01:34:32.159Z,97789.56
2022-09-14T01:37:23.943Z,97801.50
2022-09-14T01:39:58.262Z,97799.66
2022-09-14T01:42:27.316Z,97805.44
2022-09-14T01:44:58.965Z,97806.69
2022-09-14T01:47:35.755Z,97804.94
2022-09-14T01:50:13.823Z,97808.25
2022-09-14T01:52:46.321Z,97811.97
2022-09-14T01:55:22.792Z,97804.34
2022-09-14T01:57:58.397Z,97800.44
2022-09-14T02:00:24.889Z,97802.19
2022-09-14T02:03:05.239Z,97802.97
2022-09-14T02:05:41.078Z,97788.69
2022-09-14T02:08:08.568Z,97795.31
2022-09-14T02:10:35.429Z,97783.78
2022-09-14T02:13:02.294Z,97789.38
2022-09-14T02:15:28.754Z,97788.38
2022-09-14T02:17:55.416Z,97789.56
2022-09-14T02:20:28.885Z,97788.97
2022-09-14T02:22:55.777Z,97784.06
2022-09-14T02:25:22.491Z,97787.00
2022-09-14T02:27:48.975Z,97782.69
2022-09-14T02:30:17.080Z,97779.06
2022-09-14T02:32:58.858Z,97765.97
2022-09-14T02:35:37.595Z,97770.59
2022-09-14T02:38:29.846Z,97760.59
2022-09-14T02:41:11.478Z,97759.84
2022-09-14T02:43:52.961Z,97749.03
2022-09-14T02:46:25.885Z,97744.25
2022-09-14T02:48:58.274Z,97736.91
2022-09-14T02:51:32.503Z,97726.28
2022-09-14T02:54:08.804Z,97721.66
2022-09-14T02:56:37.253Z,97723.41
2022-09-14T02:59:03.821Z,97714.03
2022-09-14T03:01:30.483Z,97716.47
2022-09-14T03:03:56.916Z,97714.44
2022-09-14T03:06:23.402Z,97716.78
2022-09-14T03:08:50.189Z,97708.75
2022-09-14T03:11:16.921Z,97710.44
2022-09-14T03:13:44.444Z,97726.75
2022-09-14T03:16:14.594Z,97740.41
2022-09-14T03:18:41.452Z,97745.25
2022-09-14T03:21:10.396Z,97756.19
2022-09-14T03:23:42.495Z,97772.13
2022-09-14T03:26:10.701Z,97780.47
2022-09-14T03:28:37.729Z,97787.91
2022-09-14T03:31:06.419Z,97804.13
2022-09-14T03:33:33.522Z,97813.91
2022-09-14T03:36:00.631Z,97814.69
2022-09-14T03:38:30.179Z,97812.94
2022-09-14T03:40:58.419Z,97811.97
2022-09-14T03:43:25.208Z,97800.16
2022-09-14T03:45:51.804Z,97792.81
2022-09-14T03:48:19.045Z,97784.97
2022-09-14T03:50:45.525Z,97778.50
2022-09-14T03:53:13.725Z,97775.47
2022-09-14T03:55:42.607Z,97766.06
2022-09-14T03:58:09.076Z,97767.16
2022-09-14T04:00:36.291Z,97756.28
2022-09-14T04:03:03.501Z,97757.47
2022-09-14T04:05:30.260Z,97745.53
2022-09-14T04:07:57.307Z,97736.25
2022-09-14T04:10:23.747Z,97720.50
2022-09-14T04:12:51.327Z,97716.59
2022-09-14T04:15:18.897Z,97708.84
2022-09-14T04:17:45.597Z,97735.91
2022-09-14T04:20:12.483Z,97766.06
2022-09-14T04:22:39.397Z,97772.50
2022-09-14T04:25:06.399Z,97773.41
2022-09-14T04:27:33.251Z,97770.06
2022-09-14T04:29:59.762Z,97751.50
2022-09-14T04:32:28.743Z,97743.47
2022-09-14T04:34:58.237Z,97732.13
2022-09-14T04:37:25.644Z,97735.75
2022-09-14T04:39:52.360Z,97732.91
2022-09-14T04:42:19.404Z,97739.56
2022-09-14T04:44:45.913Z,97738.47
2022-09-14T04:47:13.040Z,97707.38
2022-09-14T04:49:39.781Z,97693.88
2022-09-14T04:52:08.021Z,97696.78
2022-09-14T04:54:35.641Z,97710.66
2022-09-14T04:57:02.190Z,97734.75
2022-09-14T04:59:28.933Z,97739.34
2022-09-14T05:01:55.534Z,97733.38
2022-09-14T05:04:22.245Z,97721.66
2022-09-14T05:06:50.328Z,97717.84
2022-09-14T05:09:18.594Z,97712.66
2022-09-14T05:11:46.350Z,97716.38
2022-09-14T05:14:14.110Z,97717.66
2022-09-14T05:16:42.751Z,97714.94
2022-09-14T05:19:14.042Z,97705.72
2022-09-14T05:21:40.752Z,97708.06
2022-09-14T05:24:13.640Z,97700.84
2022-09-14T05:26:41.199Z,97710.91
2022-09-14T05:29:08.185Z,97703.84
2022-09-14T05:31:35.187Z,97705.06
2022-09-14T05:34:02.596Z,97698.19
2022-09-14T05:36:36.573Z,97702.50
2022-09-14T05:39:04.061Z,97687.03
2022-09-14T05:41:30.980Z,97666.53
2022-09-14T05:44:00.051Z,97662.91
2022-09-14T05:46:27.083Z,97653.22
2022-09-14T05:48:54.022Z,97651.16
2022-09-14T05:51:23.691Z,97648.63
2022-09-14T05:53:55.485Z,97658.59
2022-09-14T05:56:23.825Z,97660.75
2022-09-14T05:58:52.780Z,97654.28
2022-09-14T06:01:25.169Z,97649.19
2022-09-14T06:06:40.105Z,97632.75
2022-09-14T06:09:06.913Z,97637.28
2022-09-14T06:11:36.655Z,97638.34
2022-09-14T06:14:07.600Z,97640.81
2022-09-14T06:16:35.433Z,97624.84
2022-09-14T06:19:02.505Z,97626.22
2022-09-14T06:21:34.679Z,97622.81
2022-09-14T06:24:04.777Z,97622.50
2022-09-14T06:26:31.454Z,97622.72
2022-09-14T06:28:58.611Z,97619.09
2022-09-14T06:31:25.725Z,97617.72
2022-09-14T06:33:55.388Z,97614.59
2022-09-14T06:36:28.811Z,97611.69
2022-09-14T06:38:57.498Z,97617.63
2022-09-14T06:41:30.184Z,97618.59
2022-09-14T06:44:03.364Z,97615.06
2022-09-14T06:46:34.181Z,97617.59
2022-09-14T06:49:11.559Z,97611.16
2022-09-14T06:51:41.360Z,97618.00
2022-09-14T06:54:11.004Z,97625.00
2022-09-14T06:56:40.637Z,97623.03
2022-09-14T06:59:13.638Z,97617.06
2022-09-14T07:01:41.721Z,97623.19
2022-09-14T07:04:09.573Z,97619.38
2022-09-14T07:06:42.846Z,97620.63
2022-09-14T07:09:12.975Z,97623.69
2022-09-14T07:11:43.709Z,97624.47
2022-09-14T07:14:12.872Z,97623.47
2022-09-14T07:16:40.671Z,97617.69
2022-09-14T07:19:11.398Z,97621.81
2022-09-14T07:24:23.001Z,97616.13
2022-09-14T07:29:35.195Z,97613.81
2022-09-14T07:32:07.572Z,97611.78
2022-09-14T07:34:45.336Z,97614.59
2022-09-14T07:37:12.708Z,97616.34
2022-09-14T07:39:40.829Z,97612.16
2022-09-14T07:42:07.927Z,97611.84
2022-09-14T07:44:35.546Z,97614.66
2022-09-14T07:47:02.551Z,97618.47
2022-09-14T07:49:30.389Z,97623.03
2022-09-14T07:51:57.457Z,97629.16
2022-09-14T07:54:24.418Z,97622.97
2022-09-14T07:56:51.164Z,97615.31
2022-09-14T07:59:35.005Z,97620.44
2022-09-14T08:02:09.140Z,97622.63
2022-09-14T08:04:42.680Z,97619.75
2022-09-14T08:07:09.893Z,97629.53
2022-09-14T08:09:39.113Z,97623.19
2022-09-14T08:12:06.821Z,97629.91
2022-09-14T08:14:33.695Z,97622.19
2022-09-14T08:17:01.030Z,97630.75
2022-09-14T08:19:29.109Z,97626.91
2022-09-14T08:21:55.999Z,97626.50
2022-09-14T08:24:24.332Z,97628.53
2022-09-14T08:26:51.250Z,97623.78
2022-09-14T08:29:19.556Z,97630.88
2022-09-14T08:31:50.087Z,97630.63
2022-09-14T08:34:19.894Z,97625.84
2022-09-14T08:36:48.489Z,97621.41
2022-09-14T08:39:17.444Z,97619.53
2022-09-14T08:41:44.073Z,97626.25
2022-09-14T08:44:17.291Z,97623.31
2022-09-14T08:47:05.848Z,97622.09
2022-09-14T08:50:11.531Z,97608.38
2022-09-14T08:56:02.920Z,97618.22
2022-09-14T08:58:57.784Z,97622.16
2022-09-14T09:01:46.407Z,97619.19
2022-09-14T09:04:34.328Z,97622.31
2022-09-14T09:07:34.742Z,97623.88
2022-09-14T09:10:05.465Z,97636.69
2022-09-14T09:12:37.685Z,97628.91
2022-09-14T09:18:28.492Z,97635.16
2022-09-14T09:21:02.121Z,97646.06
2022-09-14T09:23:31.193Z,97642.16
2022-09-14T09:26:06.711Z,97641.38
2022-09-14T09:28:34.062Z,97635.16
2022-09-14T09:31:14.575Z,97644.63
2022-09-14T09:33:42.539Z,97655.34
2022-09-14T09:36:13.902Z,97666.28
2022-09-14T09:38:44.505Z,97668.97
2022-09-14T09:41:23.072Z,97670.38
2022-09-14T09:44:12.157Z,97669.25
2022-09-14T09:49:43.176Z,97687.63
2022-09-14T09:52:15.822Z,97689.63
2022-09-14T09:54:55.891Z,97689.34
2022-09-14T09:57:40.131Z,97697.28
2022-09-14T10:00:26.745Z,97699.63
2022-09-14T10:03:03.148Z,97700.72
2022-09-14T10:05:32.354Z,97701.38
2022-09-14T10:08:02.057Z,97698.09
2022-09-14T10:10:34.849Z,97704.47
2022-09-14T10:13:03.878Z,97703.25
2022-09-14T10:15:39.532Z,97704.31
2022-09-14T10:18:37.789Z,97698.09
2022-09-14T10:21:16.803Z,97685.50
2022-09-14T10:23:44.270Z,97674.69
2022-09-14T10:26:18.756Z,97670.31
2022-09-14T10:28:49.022Z,97663.38
2022-09-14T10:31:19.597Z,97664.13
2022-09-14T10:33:53.845Z,97671.63
2022-09-14T10:36:44.402Z,97661.03
2022-09-14T10:39:32.368Z,97665.09
2022-09-14T10:42:07.345Z,97669.63
2022-09-14T10:44:59.752Z,97668.69
2022-09-14T10:47:38.487Z,97659.31
2022-09-14T10:50:08.179Z,97656.97
2022-09-14T10:53:03.665Z,97652.78
2022-09-14T10:55:47.103Z,97642.94
2022-09-14T10:58:33.285Z,97636.22
2022-09-14T11:01:08.968Z,97647.28
2022-09-14T11:04:11.798Z,97644.81
2022-09-14T11:07:14.598Z,97640.44
2022-09-14T11:10:21.654Z,97628.44
2022-09-14T11:13:26.086Z,97628.91
2022-09-14T11:16:04.740Z,97627.16
2022-09-14T11:18:53.453Z,97623.66
2022-09-14T11:22:01.605Z,97621.94
2022-09-14T11:24:57.469Z,97635.72
2022-09-14T11:27:31.616Z,97616.50
2022-09-14T11:30:05.033Z,97614.13
2022-09-14T11:32:33.889Z,97614.22
2022-09-14T11:35:14.371Z,97610.47
2022-09-14T11:37:44.708Z,97612.63
2022-09-14T11:40:56.837Z,97605.44
2022-09-14T11:43:32.955Z,97613.41
2022-09-14T11:46:08.600Z,97601.53
2022-09-14T11:48:56.699Z,97591.97
2022-09-14T11:51:33.286Z,97588.00
2022-09-14T11:54:23.713Z,97583.22
2022-09-14T11:56:57.372Z,97577.59
2022-09-14T11:59:44.502Z,97582.13
2022-09-14T12:02:41.770Z,97580.91
2022-09-14T12:05:13.754Z,97589.03
2022-09-14T12:07:43.324Z,97595.75
2022-09-14T12:10:23.416Z,97577.34
2022-09-14T12:13:21.359Z,97574.94
2022-09-14T12:15:48.137Z,97579.88
2022-09-14T12:18:24.914Z,97577.78
2022-09-14T12:21:03.270Z,97569.66
2022-09-14T12:23:45.541Z,97573.09
2022-09-14T12:26:12.318Z,97569.41
2022-09-14T12:28:48.509Z,97573.56
2022-09-14T12:31:37.414Z,97556.72
2022-09-14T12:34:08.550Z,97565.25
2022-09-14T12:36:38.115Z,97551.44
2022-09-14T12:39:22.409Z,97555.94
2022-09-14T12:41:48.824Z,97561.19
2022-09-14T12:44:34.287Z,97560.00
2022-09-14T12:47:25.628Z,97555.06
2022-09-14T12:49:54.135Z,97574.81
2022-09-14T12:52:28.131Z,97590.09
2022-09-14T12:55:19.342Z,97582.19
2022-09-14T12:57:58.059Z,97579.03
2022-09-14T13:00:26.960Z,97568.16
2022-09-14T13:03:15.413Z,97566.00
2022-09-14T13:05:45.038Z,97564.56
2022-09-14T13:08:13.323Z,97556.34
2022-09-14T13:10:49.244Z,97553.00
2022-09-14T13:13:25.752Z,97551.69
2022-09-14T13:16:05.368Z,97546.66
2022-09-14T13:18:37.020Z,97552.66
2022-09-14T13:21:24.023Z,97546.78
2022-09-14T13:23:51.079Z,97547.69
2022-09-14T13:26:27.009Z,97553.00
2022-09-14T13:28:55.462Z,97553.69
2022-09-14T13:31:35.663Z,97541.91
2022-09-14T13:34:04.714Z,97547.00
2022-09-14T13:36:35.736Z,97549.00
2022-09-14T13:39:04.040Z,97546.53
2022-09-14T13:41:32.284Z,97546.03
2022-09-14T13:44:00.244Z,97533.13
2022-09-14T13:46:28.190Z,97541.25
2022-09-14T13:48:55.549Z,97527.94
2022-09-14T13:51:25.365Z,97515.84
2022-09-14T13:53:54.655Z,97506.19
2022-09-14T13:57:07.689Z,97487.53
2022-09-14T13:59:34.277Z,97480.53
2022-09-14T14:02:03.142Z,97478.56
2022-09-14T14:04:38.553Z,97491.22
2022-09-14T14:07:18.782Z,97484.22
2022-09-14T14:09:57.344Z,97498.84
2022-09-14T14:12:32.199Z,97501.66
2022-09-14T14:15:06.910Z,97503.00
2022-09-14T14:17:37.063Z,97511.06
2022-09-14T14:20:39.351Z,97504.91
2022-09-14T14:23:06.455Z,97504.25
2022-09-14T14:25:42.154Z,97495.81
2022-09-14T14:28:21.832Z,97482.41
2022-09-14T14:30:48.821Z,97491.94
2022-09-14T14:33:21.047Z,97490.03
2022-09-14T14:35:49.578Z,97485.25
2022-09-14T14:38:36.868Z,97482.38
2022-09-14T14:41:05.045Z,97491.44
2022-09-14T14:43:35.039Z,97507.59
2022-09-14T14:46:02.019Z,97534.94
2022-09-14T14:48:32.989Z,97546.97
2022-09-14T14:51:01.015Z,97557.53
2022-09-14T14:53:29.521Z,97576.06
2022-09-14T14:55:56.397Z,97580.22
2022-09-14T14:58:23.952Z,97587.06
2022-09-14T15:00:52.048Z,97571.97
2022-09-14T15:03:19.761Z,97568.88
2022-09-14T15:05:48.373Z,97538.00
2022-09-14T15:24:04.773Z,97505.22
2022-09-14T15:26:32.149Z,97500.84
2022-09-14T15:29:00.089Z,97507.09
2022-09-14T15:31:30.404Z,97522.53
2022-09-14T15:33:58.500Z,97524.25
2022-09-14T15:36:52.565Z,97534.88
2022-09-14T15:39:25.941Z,97538.16
2022-09-14T15:41:53.667Z,97520.03
2022-09-14T15:44:20.885Z,97518.03
2022-09-14T15:46:54.109Z,97512.72
2022-09-14T15:49:23.614Z,97513.94
2022-09-14T15:51:52.514Z,97532.38
2022-09-14T15:54:23.336Z,97531.91
2022-09-14T15:56:56.220Z,97522.09
2022-09-14T15:59:23.363Z,97503.06
2022-09-14T16:01:50.697Z,97501.97
2022-09-14T16:04:18.362Z,97505.06
2022-09-14T16:06:46.303Z,97498.38
2022-09-14T16:09:15.130Z,97488.84
2022-09-14T16:11:44.106Z,97491.34
2022-09-14T16:14:12.158Z,97502.41
2022-09-14T16:16:39.516Z,97500.19
2022-09-14T16:19:16.117Z,97514.53
2022-09-14T16:21:48.370Z,97516.75
2022-09-14T16:24:20.004Z,97515.66
2022-09-14T16:26:53.097Z,97510.00
2022-09-14T16:29:22.204Z,97500.97
2022-09-14T16:31:50.032Z,97489.75
2022-09-14T16:34:22.295Z,97488.34
2022-09-14T16:36:49.971Z,97489.13
2022-09-14T16:39:23.695Z,97480.22
2022-09-14T16:41:51.176Z,97477.75
2022-09-14T16:44:21.345Z,97469.31
2022-09-14T16:46:49.782Z,97475.72
2022-09-14T16:49:25.026Z,97463.41
2022-09-14T16:51:55.935Z,97462.03
2022-09-14T16:54:25.645Z,97458.13
2022-09-14T16:56:57.351Z,97464.97
2022-09-14T16:59:24.716Z,97470.44
2022-09-14T17:01:56.155Z,97466.72
2022-09-14T17:09:54.545Z,97468.16
2022-09-14T17:12:22.041Z,97475.47
2022-09-14T17:14:52.074Z,97479.50
2022-09-14T17:17:24.468Z,97482.94
2022-09-14T17:19:52.079Z,97477.63
2022-09-14T17:22:22.005Z,97476.41
2022-09-14T17:25:03.491Z,97478.28
2022-09-14T17:27:37.376Z,97474.41
2022-09-14T17:35:56.540Z,97492.94
2022-09-14T17:41:13.002Z,97495.75
2022-09-14T17:43:41.387Z,97497.28
2022-09-14T17:46:13.981Z,97501.81
2022-09-14T17:48:43.926Z,97501.03
2022-09-14T17:51:14.673Z,97505.88
2022-09-14T17:53:46.127Z,97502.13
2022-09-14T17:59:20.496Z,97487.63
2022-09-14T18:01:49.745Z,97497.28
2022-09-14T18:04:17.634Z,97497.91
2022-09-14T18:06:50.391Z,97503.22
2022-09-14T18:09:22.064Z,97504.94
2022-09-14T18:11:50.210Z,97505.09
2022-09-14T18:14:17.794Z,97504.28
2022-09-14T18:16:45.610Z,97504.94
2022-09-14T18:19:13.799Z,97499.00
2022-09-14T18:21:41.589Z,97501.34
2022-09-14T18:24:10.885Z,97497.91
2022-09-14T18:26:39.065Z,97505.09
2022-09-14T18:29:06.418Z,97504.63
2022-09-14T18:31:34.560Z,97519.75
2022-09-14T18:34:01.731Z,97521.31
2022-09-14T18:36:30.154Z,97531.41
2022-09-14T18:39:07.235Z,97519.25
2022-09-14T18:41:35.062Z,97526.91
2022-09-14T18:44:03.168Z,97525.81
2022-09-14T18:46:40.687Z,97535.00
2022-09-14T18:49:09.117Z,97538.88
2022-09-14T18:51:36.190Z,97535.91
2022-09-14T18:54:07.539Z,97540.44
2022-09-14T18:56:39.767Z,97546.06
2022-09-14T18:59:15.030Z,97549.28
2022-09-14T19:01:55.806Z,97552.25
2022-09-14T19:04:22.562Z,97544.31
2022-09-14T19:06:49.959Z,97548.22
2022-09-14T19:09:17.066Z,97552.72
2022-09-14T19:11:43.904Z,97555.22
2022-09-14T19:14:13.261Z,97550.69
2022-09-14T19:16:41.482Z,97541.97
2022-09-14T19:19:09.700Z,97539.47
2022-09-14T19:21:36.441Z,97530.91
2022-09-14T19:24:06.421Z,97527.28
2022-09-14T19:26:41.145Z,97531.75
2022-09-14T19:29:11.128Z,97535.50
2022-09-14T19:31:37.810Z,97534.41
2022-09-14T19:34:05.342Z,97528.94
2022-09-14T19:36:34.817Z,97538.56
2022-09-14T19:39:02.938Z,97541.66
2022-09-14T19:41:34.140Z,97538.94
2022-09-14T19:44:02.357Z,97543.44
2022-09-14T19:46:31.250Z,97549.66
2022-09-14T19:48:58.602Z,97549.28
2022-09-14T19:51:27.904Z,97548.50
2022-09-14T19:53:56.446Z,97554.28
2022-09-14T19:56:25.866Z,97557.75
2022-09-14T19:58:54.415Z,97556.66
2022-09-14T20:01:23.288Z,97556.97
2022-09-14T20:03:50.492Z,97557.59
2022-09-14T20:06:21.217Z,97566.53
2022-09-14T20:08:49.043Z,97562.63
2022-09-14T20:11:19.945Z,97554.34
2022-09-14T20:13:50.821Z,97560.38
2022-09-14T20:16:26.367Z,97570.00
2022-09-14T20:18:53.213Z,97564.66
2022-09-14T20:21:23.667Z,97557.50
2022-09-14T20:24:14.521Z,97552.84
2022-09-14T20:26:42.299Z,97555.59
2022-09-14T20:29:09.262Z,97550.69
2022-09-14T20:31:36.011Z,97542.00
2022-09-14T20:34:03.728Z,97540.34
2022-09-14T20:36:30.958Z,97542.38
2022-09-14T20:38:59.359Z,97540.28
2022-09-14T20:41:33.330Z,97540.28
2022-09-14T20:44:00.385Z,97542.13
2022-09-14T20:46:31.760Z,97534.78
2022-09-14T20:48:58.717Z,97538.72
2022-09-14T20:51:25.698Z,97555.88
2022-09-14T20:53:52.926Z,97556.44
2022-09-14T20:56:23.118Z,97555.03
2022-09-14T20:58:53.811Z,97550.03
2022-09-14T21:01:22.975Z,97541.31
2022-09-14T21:03:50.874Z,97541.50
2022-09-14T21:06:23.942Z,97552.22
2022-09-14T21:08:51.262Z,97540.66
2022-09-14T21:11:24.949Z,97529.09
2022-09-14T21:13:53.682Z,97524.22
2022-09-14T21:16:25.024Z,97530.28
2022-09-14T21:18:56.524Z,97528.59
2022-09-14T21:21:23.888Z,97524.88
2022-09-14T21:23:51.109Z,97518.63
2022-09-14T21:26:20.086Z,97524.22
2022-09-14T21:28:47.275Z,97522.34
2022-09-14T21:31:16.812Z,97524.31
2022-09-14T21:33:46.790Z,97535.50
2022-09-14T21:36:15.217Z,97542.13
2022-09-14T21:38:53.389Z,97539.63
2022-09-14T21:41:22.191Z,97544.59
2022-09-14T21:43:49.677Z,97534.94
2022-09-14T21:46:17.873Z,97534.94
2022-09-14T21:48:45.277Z,97535.22
2022-09-14T21:51:22.971Z,97537.69
2022-09-14T21:53:53.113Z,97542.03
2022-09-14T21:56:26.505Z,97539.97
2022-09-14T21:58:55.543Z,97537.03
2022-09-14T22:01:25.286Z,97540.66
2022-09-14T22:03:56.536Z,97544.47
2022-09-14T22:06:26.016Z,97545.09
2022-09-14T22:08:53.303Z,97539.03
2022-09-14T22:11:23.436Z,97545.19
2022-09-14T22:14:00.669Z,97542.38
2022-09-14T22:16:28.029Z,97541.78
2022-09-14T22:19:00.098Z,97538.41
2022-09-14T22:21:28.885Z,97535.00
2022-09-14T22:24:02.453Z,97544.47
2022-09-14T22:26:32.311Z,97540.03
2022-09-14T22:28:59.986Z,97544.16
2022-09-14T22:31:28.587Z,97545.75
2022-09-14T22:34:00.832Z,97546.81
2022-09-14T22:36:27.830Z,97552.66
2022-09-14T22:39:01.803Z,97555.19
2022-09-14T22:41:30.395Z,97558.16
2022-09-14T22:43:57.388Z,97569.47
2022-09-14T22:46:25.150Z,97569.47
2022-09-14T22:48:52.931Z,97560.09
2022-09-14T22:51:25.356Z,97558.00
2022-09-14T22:53:53.325Z,97566.91
2022-09-14T22:56:23.283Z,97565.44
2022-09-14T22:58:50.522Z,97564.72
2022-09-14T23:01:24.007Z,97575.97
2022-09-14T23:03:58.653Z,97571.16
2022-09-14T23:06:27.731Z,97570.41
2022-09-14T23:08:54.417Z,97567.31
2022-09-14T23:11:21.133Z,97569.44
2022-09-14T23:13:47.757Z,97569.16
2022-09-14T23:16:19.441Z,97554.19
2022-09-14T23:18:53.174Z,97553.59
2022-09-14T23:21:20.726Z,97555.88
2022-09-14T23:23:55.455Z,97551.66
2022-09-14T23:26:23.144Z,97565.34
2022-09-14T23:28:59.114Z,97559.75
2022-09-14T23:31:26.530Z,97554.34
2022-09-14T23:33:55.247Z,97553.56
2022-09-14T23:36:23.126Z,97543.94
2022-09-14T23:38:50.545Z,97554.09
2022-09-14T23:41:19.194Z,97548.63
2022-09-14T23:43:46.772Z,97550.94
2022-09-14T23:46:14.073Z,97556.03
2022-09-14T23:48:40.887Z,97555.31
2022-09-14T23:51:09.084Z,97557.41
2022-09-14T23:53:36.554Z,97562.50
2022-09-14T23:56:04.080Z,97564.34
2022-09-14T23:58:31.258Z,97562.16
